sensor_id;sensor_type;location;lat;lon;timestamp;pressure;altitude;pressure_sealevel;temperature;humidity
51369;BME280;37459;51.416;5.502;2022-12-07T00:01:40;101150.69;;;3.19;100.00
51369;BME280;37459;51.416;5.502;2022-12-07T00:04:09;101152.03;;;3.23;100.00
51369;BME280;37459;51.416;5.502;2022-12-07T00:06:38;101160.94;;;3.32;100.00
51369;BME280;37459;51.416;5.502;2022-12-07T00:09:06;101151.44;;;3.29;100.00
51369;BME280;37459;51.416;5.502;2022-12-07T00:11:33;101152.44;;;3.28;100.00
51369;BME280;37459;51.416;5.502;2022-12-07T00:14:03;101151.06;;;3.24;100.00
51369;BME280;37459;51.416;5.502;2022-12-07T00:16:31;101145.06;;;3.22;100.00
51369;BME280;37459;51.416;5.502;2022-12-07T00:18:59;101142.69;;;3.19;100.00
51369;BME280;37459;51.416;5.502;2022-12-07T00:21:27;101135.03;;;3.16;100.00
51369;BME280;37459;51.416;5.502;2022-12-07T00:23:55;101135.84;;;3.16;100.00
51369;BME280;37459;51.416;5.502;2022-12-07T00:26:23;101134.25;;;3.05;100.00
51369;BME280;37459;51.416;5.502;2022-12-07T00:28:51;101137.38;;;3.01;100.00
51369;BME280;37459;51.416;5.502;2022-12-07T00:31:21;101141.97;;;3.08;100.00
51369;BME280;37459;51.416;5.502;2022-12-07T00:33:49;101134.94;;;3.07;100.00
51369;BME280;37459;51.416;5.502;2022-12-07T00:36:17;101123.94;;;3.02;100.00
51369;BME280;37459;51.416;5.502;2022-12-07T00:38:44;101127.56;;;3.01;100.00
51369;BME280;37459;51.416;5.502;2022-12-07T00:41:13;101138.53;;;2.98;100.00
51369;BME280;37459;51.416;5.502;2022-12-07T00:43:40;101136.88;;;2.97;100.00
51369;BME280;37459;51.416;5.502;2022-12-07T00:46:08;101131.47;;;2.89;100.00
51369;BME280;37459;51.416;5.502;2022-12-07T00:48:36;101125.13;;;2.90;100.00
51369;BME280;37459;51.416;5.502;2022-12-07T00:51:04;101126.28;;;2.87;100.00
51369;BME280;37459;51.416;5.502;2022-12-07T00:53:33;101126.44;;;2.86;100.00
51369;BME280;37459;51.416;5.502;2022-12-07T00:56:04;101119.59;;;2.83;100.00
51369;BME280;37459;51.416;5.502;2022-12-07T00:58:31;101128.03;;;2.79;100.00
51369;BME280;37459;51.416;5.502;2022-12-07T01:00:59;101128.19;;;2.77;100.00
51369;BME280;37459;51.416;5.502;2022-12-07T01:03:26;101118.81;;;2.73;100.00
51369;BME280;37459;51.416;5.502;2022-12-07T01:05:55;101126.22;;;2.79;100.00
51369;BME280;37459;51.416;5.502;2022-12-07T01:08:23;101122.81;;;2.69;100.00
51369;BME280;37459;51.416;5.502;2022-12-07T01:10:57;101121.94;;;2.68;100.00
51369;BME280;37459;51.416;5.502;2022-12-07T01:13:24;101119.50;;;2.57;100.00
51369;BME280;37459;51.416;5.502;2022-12-07T01:15:51;101124.84;;;2.57;100.00
51369;BME280;37459;51.416;5.502;2022-12-07T01:18:17;101125.38;;;2.61;100.00
51369;BME280;37459;51.416;5.502;2022-12-07T01:20:44;101127.63;;;2.56;100.00
51369;BME280;37459;51.416;5.502;2022-12-07T01:23:12;101126.66;;;2.57;100.00
51369;BME280;37459;51.416;5.502;2022-12-07T01:25:38;101119.50;;;2.57;100.00
51369;BME280;37459;51.416;5.502;2022-12-07T01:28:04;101132.44;;;2.52;100.00
51369;BME280;37459;51.416;5.502;2022-12-07T01:30:31;101124.59;;;2.51;100.00
51369;BME280;37459;51.416;5.502;2022-12-07T01:32:57;101127.94;;;2.53;100.00
51369;BME280;37459;51.416;5.502;2022-12-07T01:35:24;101126.44;;;2.50;100.00
51369;BME280;37459;51.416;5.502;2022-12-07T01:37:50;101128.41;;;2.48;100.00
51369;BME280;37459;51.416;5.502;2022-12-07T01:40:18;101130.84;;;2.41;100.00
51369;BME280;37459;51.416;5.502;2022-12-07T01:42:45;101129.69;;;2.44;100.00
51369;BME280;37459;51.416;5.502;2022-12-07T01:45:40;101132.03;;;2.47;100.00
51369;BME280;37459;51.416;5.502;2022-12-07T01:48:09;101123.38;;;2.45;100.00
51369;BME280;37459;51.416;5.502;2022-12-07T01:50:37;101126.09;;;2.35;100.00
51369;BME280;37459;51.416;5.502;2022-12-07T01:53:06;101129.78;;;2.34;100.00
51369;BME280;37459;51.416;5.502;2022-12-07T01:55:40;101124.72;;;2.31;100.00
51369;BME280;37459;51.416;5.502;2022-12-07T01:58:07;101123.91;;;2.31;100.00
51369;BME280;37459;51.416;5.502;2022-12-07T02:00:34;101123.06;;;2.30;100.00
51369;BME280;37459;51.416;5.502;2022-12-07T02:03:04;101124.34;;;2.26;100.00
51369;BME280;37459;51.416;5.502;2022-12-07T02:05:33;101130.19;;;2.30;100.00
51369;BME280;37459;51.416;5.502;2022-12-07T02:08:01;101118.47;;;2.22;100.00
51369;BME280;37459;51.416;5.502;2022-12-07T02:10:30;101126.47;;;2.40;100.00
51369;BME280;37459;51.416;5.502;2022-12-07T02:13:00;101122.41;;;2.46;100.00
51369;BME280;37459;51.416;5.502;2022-12-07T02:15:33;101117.53;;;2.41;100.00
51369;BME280;37459;51.416;5.502;2022-12-07T02:18:09;101090.97;;;2.32;100.00
51369;BME280;37459;51.416;5.502;2022-12-07T02:20:40;101118.59;;;2.49;100.00
51369;BME280;37459;51.416;5.502;2022-12-07T02:23:38;101101.72;;;2.40;100.00
51369;BME280;37459;51.416;5.502;2022-12-07T02:29:13;101103.91;;;2.44;100.00
51369;BME280;37459;51.416;5.502;2022-12-07T02:31:44;101117.63;;;2.50;100.00
51369;BME280;37459;51.416;5.502;2022-12-07T02:34:20;101115.09;;;2.48;100.00
51369;BME280;37459;51.416;5.502;2022-12-07T02:36:52;101116.25;;;2.45;100.00
51369;BME280;37459;51.416;5.502;2022-12-07T02:39:26;101106.56;;;2.44;100.00
51369;BME280;37459;51.416;5.502;2022-12-07T02:41:56;101119.13;;;2.52;100.00
51369;BME280;37459;51.416;5.502;2022-12-07T02:44:28;101113.66;;;2.54;100.00
51369;BME280;37459;51.416;5.502;2022-12-07T02:46:57;101110.00;;;2.55;100.00
51369;BME280;37459;51.416;5.502;2022-12-07T02:49:35;101092.91;;;2.39;100.00
51369;BME280;37459;51.416;5.502;2022-12-07T02:52:03;101101.19;;;2.54;100.00
51369;BME280;37459;51.416;5.502;2022-12-07T02:54:29;101102.78;;;2.47;100.00
51369;BME280;37459;51.416;5.502;2022-12-07T02:57:01;101092.53;;;2.34;100.00
51369;BME280;37459;51.416;5.502;2022-12-07T02:59:43;101110.16;;;2.35;100.00
51369;BME280;37459;51.416;5.502;2022-12-07T03:02:18;101110.00;;;2.37;100.00
51369;BME280;37459;51.416;5.502;2022-12-07T03:04:59;101108.31;;;2.36;100.00
51369;BME280;37459;51.416;5.502;2022-12-07T03:07:33;101116.97;;;2.38;100.00
51369;BME280;37459;51.416;5.502;2022-12-07T03:10:05;101112.94;;;2.34;100.00
51369;BME280;37459;51.416;5.502;2022-12-07T03:12:39;101104.88;;;2.25;100.00
51369;BME280;37459;51.416;5.502;2022-12-07T03:15:12;101114.16;;;2.21;100.00
51369;BME280;37459;51.416;5.502;2022-12-07T03:17:42;101110.88;;;2.28;100.00
51369;BME280;37459;51.416;5.502;2022-12-07T03:20:16;101107.69;;;2.24;100.00
51369;BME280;37459;51.416;5.502;2022-12-07T03:22:47;101113.75;;;2.16;100.00
51369;BME280;37459;51.416;5.502;2022-12-07T03:25:15;101105.78;;;2.16;100.00
51369;BME280;37459;51.416;5.502;2022-12-07T03:27:47;101108.16;;;2.19;100.00
51369;BME280;37459;51.416;5.502;2022-12-07T03:30:21;101113.53;;;2.28;100.00
51369;BME280;37459;51.416;5.502;2022-12-07T03:32:50;101111.50;;;2.21;100.00
51369;BME280;37459;51.416;5.502;2022-12-07T03:35:23;101101.91;;;2.11;100.00
51369;BME280;37459;51.416;5.502;2022-12-07T03:37:54;101101.28;;;2.17;100.00
51369;BME280;37459;51.416;5.502;2022-12-07T03:40:26;101104.03;;;2.25;100.00
51369;BME280;37459;51.416;5.502;2022-12-07T03:42:54;101100.91;;;2.30;100.00
51369;BME280;37459;51.416;5.502;2022-12-07T03:45:32;101095.38;;;2.23;100.00
51369;BME280;37459;51.416;5.502;2022-12-07T03:48:07;101096.22;;;2.23;100.00
51369;BME280;37459;51.416;5.502;2022-12-07T03:50:39;101078.09;;;2.09;100.00
51369;BME280;37459;51.416;5.502;2022-12-07T03:53:11;101094.16;;;2.17;100.00
51369;BME280;37459;51.416;5.502;2022-12-07T03:55:42;101071.41;;;2.05;100.00
51369;BME280;37459;51.416;5.502;2022-12-07T03:58:12;101105.50;;;2.19;100.00
51369;BME280;37459;51.416;5.502;2022-12-07T04:00:43;101106.47;;;2.18;100.00
51369;BME280;37459;51.416;5.502;2022-12-07T04:03:10;101109.34;;;2.25;100.00
51369;BME280;37459;51.416;5.502;2022-12-07T04:05:38;101110.50;;;2.22;100.00
51369;BME280;37459;51.416;5.502;2022-12-07T04:08:05;101083.13;;;2.12;100.00
51369;BME280;37459;51.416;5.502;2022-12-07T04:10:31;101115.22;;;2.29;100.00
51369;BME280;37459;51.416;5.502;2022-12-07T04:12:58;101106.41;;;2.28;100.00
51369;BME280;37459;51.416;5.502;2022-12-07T04:15:25;101096.22;;;2.23;100.00
51369;BME280;37459;51.416;5.502;2022-12-07T04:17:52;101109.44;;;2.33;100.00
51369;BME280;37459;51.416;5.502;2022-12-07T04:20:20;101108.63;;;2.33;100.00
51369;BME280;37459;51.416;5.502;2022-12-07T04:22:47;101101.34;;;2.35;100.00
51369;BME280;37459;51.416;5.502;2022-12-07T04:25:13;101095.91;;;2.26;100.00
51369;BME280;37459;51.416;5.502;2022-12-07T04:27:40;101108.72;;;2.41;100.00
51369;BME280;37459;51.416;5.502;2022-12-07T04:30:08;101098.22;;;2.39;100.00
51369;BME280;37459;51.416;5.502;2022-12-07T04:32:35;101099.28;;;2.46;100.00
51369;BME280;37459;51.416;5.502;2022-12-07T04:35:03;101105.59;;;2.45;100.00
51369;BME280;37459;51.416;5.502;2022-12-07T04:37:30;101086.19;;;2.35;100.00
51369;BME280;37459;51.416;5.502;2022-12-07T04:39:57;101087.50;;;2.49;100.00
51369;BME280;37459;51.416;5.502;2022-12-07T04:42:23;101091.53;;;2.53;100.00
51369;BME280;37459;51.416;5.502;2022-12-07T04:44:50;101094.03;;;2.55;100.00
51369;BME280;37459;51.416;5.502;2022-12-07T04:47:17;101085.59;;;2.59;100.00
51369;BME280;37459;51.416;5.502;2022-12-07T04:49:43;101084.91;;;2.57;100.00
51369;BME280;37459;51.416;5.502;2022-12-07T04:52:11;101071.91;;;2.54;100.00
51369;BME280;37459;51.416;5.502;2022-12-07T04:54:37;101083.94;;;2.58;100.00
51369;BME280;37459;51.416;5.502;2022-12-07T04:57:04;101091.75;;;2.60;100.00
51369;BME280;37459;51.416;5.502;2022-12-07T04:59:30;101070.84;;;2.47;100.00
51369;BME280;37459;51.416;5.502;2022-12-07T05:01:57;101084.44;;;2.62;100.00
51369;BME280;37459;51.416;5.502;2022-12-07T05:04:23;101085.31;;;2.62;100.00
51369;BME280;37459;51.416;5.502;2022-12-07T05:06:50;101079.66;;;2.65;100.00
51369;BME280;37459;51.416;5.502;2022-12-07T05:09:18;101088.94;;;2.61;100.00
51369;BME280;37459;51.416;5.502;2022-12-07T05:11:44;101075.97;;;2.58;100.00
51369;BME280;37459;51.416;5.502;2022-12-07T05:14:13;101092.66;;;2.68;100.00
51369;BME280;37459;51.416;5.502;2022-12-07T05:16:40;101094.81;;;2.65;100.00
51369;BME280;37459;51.416;5.502;2022-12-07T05:19:08;101065.09;;;2.52;100.00
51369;BME280;37459;51.416;5.502;2022-12-07T05:21:38;101080.22;;;2.69;100.00
51369;BME280;37459;51.416;5.502;2022-12-07T05:24:06;101083.25;;;2.74;100.00
51369;BME280;37459;51.416;5.502;2022-12-07T05:26:35;101079.91;;;2.72;100.00
51369;BME280;37459;51.416;5.502;2022-12-07T05:29:03;101085.22;;;2.72;100.00
51369;BME280;37459;51.416;5.502;2022-12-07T05:31:29;101079.91;;;2.72;100.00
51369;BME280;37459;51.416;5.502;2022-12-07T05:33:56;101092.19;;;2.73;100.00
51369;BME280;37459;51.416;5.502;2022-12-07T05:36:23;101073.53;;;2.65;100.00
51369;BME280;37459;51.416;5.502;2022-12-07T05:38:49;101079.34;;;2.68;100.00
51369;BME280;37459;51.416;5.502;2022-12-07T05:41:18;101075.72;;;2.70;100.00
51369;BME280;37459;51.416;5.502;2022-12-07T05:44:03;101076.69;;;2.68;100.00
51369;BME280;37459;51.416;5.502;2022-12-07T05:46:30;101064.53;;;2.66;100.00
51369;BME280;37459;51.416;5.502;2022-12-07T05:48:57;101074.56;;;2.72;100.00
51369;BME280;37459;51.416;5.502;2022-12-07T05:51:24;101071.53;;;2.67;100.00
51369;BME280;37459;51.416;5.502;2022-12-07T05:53:50;101059.81;;;2.60;100.00
51369;BME280;37459;51.416;5.502;2022-12-07T05:56:17;101067.50;;;2.63;100.00
51369;BME280;37459;51.416;5.502;2022-12-07T05:58:43;101068.03;;;2.66;100.00
51369;BME280;37459;51.416;5.502;2022-12-07T06:01:29;101057.38;;;2.66;100.00
51369;BME280;37459;51.416;5.502;2022-12-07T06:03:55;101063.78;;;2.74;100.00
51369;BME280;37459;51.416;5.502;2022-12-07T06:06:22;101071.38;;;2.68;100.00
51369;BME280;37459;51.416;5.502;2022-12-07T06:08:48;101078.31;;;2.61;100.00
51369;BME280;37459;51.416;5.502;2022-12-07T06:11:15;101074.66;;;2.62;100.00
51369;BME280;37459;51.416;5.502;2022-12-07T06:13:59;101078.91;;;2.55;100.00
51369;BME280;37459;51.416;5.502;2022-12-07T06:16:25;101078.38;;;2.52;100.00
51369;BME280;37459;51.416;5.502;2022-12-07T06:18:53;101079.50;;;2.49;100.00
51369;BME280;37459;51.416;5.502;2022-12-07T06:21:20;101064.44;;;2.40;100.00
51369;BME280;37459;51.416;5.502;2022-12-07T06:23:46;101064.78;;;2.37;100.00
51369;BME280;37459;51.416;5.502;2022-12-07T06:26:13;101086.44;;;2.42;100.00
51369;BME280;37459;51.416;5.502;2022-12-07T06:28:39;101065.06;;;2.34;100.00
51369;BME280;37459;51.416;5.502;2022-12-07T06:31:07;101080.66;;;2.46;100.00
51369;BME280;37459;51.416;5.502;2022-12-07T06:33:34;101080.78;;;2.45;100.00
51369;BME280;37459;51.416;5.502;2022-12-07T06:36:02;101076.38;;;2.36;100.00
51369;BME280;37459;51.416;5.502;2022-12-07T06:38:28;101081.69;;;2.36;100.00
51369;BME280;37459;51.416;5.502;2022-12-07T06:40:55;101081.88;;;2.34;100.00
51369;BME280;37459;51.416;5.502;2022-12-07T06:43:22;101080.50;;;2.30;100.00
51369;BME280;37459;51.416;5.502;2022-12-07T06:45:48;101076.91;;;2.21;100.00
51369;BME280;37459;51.416;5.502;2022-12-07T06:48:16;101078.25;;;2.25;100.00
51369;BME280;37459;51.416;5.502;2022-12-07T06:50:44;101073.03;;;2.16;100.00
51369;BME280;37459;51.416;5.502;2022-12-07T06:53:12;101086.88;;;2.19;100.00
51369;BME280;37459;51.416;5.502;2022-12-07T06:55:39;101083.13;;;2.12;100.00
51369;BME280;37459;51.416;5.502;2022-12-07T06:58:05;101082.13;;;2.13;100.00
51369;BME280;37459;51.416;5.502;2022-12-07T07:00:32;101091.09;;;2.12;100.00
51369;BME280;37459;51.416;5.502;2022-12-07T07:03:00;101069.75;;;2.04;100.00
51369;BME280;37459;51.416;5.502;2022-12-07T07:05:27;101091.25;;;2.11;100.00
51369;BME280;37459;51.416;5.502;2022-12-07T07:07:53;101084.13;;;2.11;100.00
51369;BME280;37459;51.416;5.502;2022-12-07T07:10:21;101079.47;;;2.13;100.00
51369;BME280;37459;51.416;5.502;2022-12-07T07:12:48;101078.94;;;2.10;100.00
51369;BME280;37459;51.416;5.502;2022-12-07T07:15:15;101089.22;;;2.22;100.00
51369;BME280;37459;51.416;5.502;2022-12-07T07:17:42;101082.53;;;2.18;100.00
51369;BME280;37459;51.416;5.502;2022-12-07T07:20:10;101086.78;;;2.11;100.00
51369;BME280;37459;51.416;5.502;2022-12-07T07:22:36;101087.59;;;2.12;100.00
51369;BME280;37459;51.416;5.502;2022-12-07T07:25:03;101070.72;;;2.03;100.00
51369;BME280;37459;51.416;5.502;2022-12-07T07:27:31;101081.72;;;2.08;100.00
51369;BME280;37459;51.416;5.502;2022-12-07T07:29:58;101062.63;;;1.95;100.00
51369;BME280;37459;51.416;5.502;2022-12-07T07:32:24;101079.25;;;2.07;100.00
51369;BME280;37459;51.416;5.502;2022-12-07T07:34:51;101085.94;;;2.11;100.00
51369;BME280;37459;51.416;5.502;2022-12-07T07:37:17;101058.84;;;1.97;100.00
51369;BME280;37459;51.416;5.502;2022-12-07T07:39:44;101079.38;;;2.05;100.00
51369;BME280;37459;51.416;5.502;2022-12-07T07:42:10;101073.63;;;2.10;100.00
51369;BME280;37459;51.416;5.502;2022-12-07T07:44:38;101093.47;;;2.15;100.00
51369;BME280;37459;51.416;5.502;2022-12-07T07:47:05;101088.44;;;2.12;100.00
51369;BME280;37459;51.416;5.502;2022-12-07T07:49:31;101096.81;;;2.17;100.00
51369;BME280;37459;51.416;5.502;2022-12-07T07:51:58;101093.75;;;2.12;100.00
51369;BME280;37459;51.416;5.502;2022-12-07T07:54:25;101087.91;;;2.09;100.00
51369;BME280;37459;51.416;5.502;2022-12-07T07:56:52;101095.00;;;2.18;100.00
51369;BME280;37459;51.416;5.502;2022-12-07T07:59:19;101097.34;;;2.21;100.00
51369;BME280;37459;51.416;5.502;2022-12-07T08:01:46;101095.81;;;2.18;100.00
51369;BME280;37459;51.416;5.502;2022-12-07T08:04:13;101099.03;;;2.22;100.00
51369;BME280;37459;51.416;5.502;2022-12-07T08:06:40;101102.53;;;2.22;100.00
51369;BME280;37459;51.416;5.502;2022-12-07T08:09:07;101108.53;;;2.24;100.00
51369;BME280;37459;51.416;5.502;2022-12-07T08:11:34;101100.69;;;2.23;100.00
51369;BME280;37459;51.416;5.502;2022-12-07T08:14:01;101101.53;;;2.23;100.00
51369;BME280;37459;51.416;5.502;2022-12-07T08:16:28;101096.81;;;2.17;100.00
51369;BME280;37459;51.416;5.502;2022-12-07T08:18:56;101097.88;;;2.24;100.00
51369;BME280;37459;51.416;5.502;2022-12-07T08:21:22;101097.88;;;2.24;100.00
51369;BME280;37459;51.416;5.502;2022-12-07T08:23:48;101082.97;;;2.14;100.00
51369;BME280;37459;51.416;5.502;2022-12-07T08:26:18;101102.06;;;2.27;100.00
51369;BME280;37459;51.416;5.502;2022-12-07T08:28:44;101112.25;;;2.32;100.00
51369;BME280;37459;51.416;5.502;2022-12-07T08:31:12;101111.22;;;2.42;100.00
51369;BME280;37459;51.416;5.502;2022-12-07T08:33:40;101096.28;;;2.32;100.00
51369;BME280;37459;51.416;5.502;2022-12-07T08:36:09;101126.03;;;2.45;100.00
51369;BME280;37459;51.416;5.502;2022-12-07T08:38:37;101127.72;;;2.46;100.00
51369;BME280;37459;51.416;5.502;2022-12-07T08:41:05;101130.53;;;2.44;100.00
51369;BME280;37459;51.416;5.502;2022-12-07T08:43:32;101126.34;;;2.42;100.00
51369;BME280;37459;51.416;5.502;2022-12-07T08:46:06;101127.72;;;2.46;100.00
51369;BME280;37459;51.416;5.502;2022-12-07T08:48:34;101123.78;;;2.50;100.00
51369;BME280;37459;51.416;5.502;2022-12-07T08:51:02;101127.81;;;2.54;100.00
51369;BME280;37459;51.416;5.502;2022-12-07T08:53:30;101112.13;;;2.51;100.00
51369;BME280;37459;51.416;5.502;2022-12-07T08:55:57;101123.19;;;2.56;100.00
51369;BME280;37459;51.416;5.502;2022-12-07T08:58:25;101120.97;;;2.70;100.00
51369;BME280;37459;51.416;5.502;2022-12-07T09:00:51;101105.97;;;2.68;100.00
51369;BME280;37459;51.416;5.502;2022-12-07T09:03:18;101111.00;;;2.72;100.00
51369;BME280;37459;51.416;5.502;2022-12-07T09:05:45;101119.50;;;2.75;100.00
51369;BME280;37459;51.416;5.502;2022-12-07T09:08:11;101120.50;;;2.74;100.00
51369;BME280;37459;51.416;5.502;2022-12-07T09:10:39;101117.72;;;2.76;100.00
51369;BME280;37459;51.416;5.502;2022-12-07T09:13:06;101122.13;;;2.85;100.00
51369;BME280;37459;51.416;5.502;2022-12-07T09:15:32;101118.63;;;2.84;100.00
51369;BME280;37459;51.416;5.502;2022-12-07T09:17:59;101117.00;;;2.92;100.00
51369;BME280;37459;51.416;5.502;2022-12-07T09:20:26;101113.13;;;2.86;100.00
51369;BME280;37459;51.416;5.502;2022-12-07T09:22:52;101111.00;;;2.90;100.00
51369;BME280;37459;51.416;5.502;2022-12-07T09:25:19;101118.16;;;2.89;100.00
51369;BME280;37459;51.416;5.502;2022-12-07T09:27:47;101116.19;;;2.91;100.00
51369;BME280;37459;51.416;5.502;2022-12-07T09:30:13;101108.47;;;2.88;100.00
51369;BME280;37459;51.416;5.502;2022-12-07T09:32:40;101115.84;;;2.94;100.00
51369;BME280;37459;51.416;5.502;2022-12-07T09:35:07;101106.03;;;2.95;100.00
51369;BME280;37459;51.416;5.502;2022-12-07T09:37:35;101109.84;;;2.92;100.00
51369;BME280;37459;51.416;5.502;2022-12-07T09:40:02;101099.34;;;2.91;100.00
51369;BME280;37459;51.416;5.502;2022-12-07T09:42:32;101108.25;;;2.99;100.00
51369;BME280;37459;51.416;5.502;2022-12-07T09:45:02;101109.59;;;3.03;100.00
51369;BME280;37459;51.416;5.502;2022-12-07T09:47:32;101114.66;;;4.44;100.00
51369;BME280;37459;51.416;5.502;2022-12-07T09:50:03;101118.91;;;4.79;100.00
51369;BME280;37459;51.416;5.502;2022-12-07T09:52:31;101113.72;;;4.69;100.00
51369;BME280;37459;51.416;5.502;2022-12-07T09:54:58;101109.03;;;4.47;100.00
51369;BME280;37459;51.416;5.502;2022-12-07T09:57:28;101119.97;;;4.27;100.00
51369;BME280;37459;51.416;5.502;2022-12-07T10:00:00;101117.09;;;4.13;100.00
51369;BME280;37459;51.416;5.502;2022-12-07T10:02:35;101104.19;;;4.00;100.00
51369;BME280;37459;51.416;5.502;2022-12-07T10:05:04;101118.84;;;3.96;100.00
51369;BME280;37459;51.416;5.502;2022-12-07T10:07:32;101110.13;;;3.85;100.00
51369;BME280;37459;51.416;5.502;2022-12-07T10:09:58;101112.44;;;3.80;100.00
51369;BME280;37459;51.416;5.502;2022-12-07T10:12:25;101110.75;;;3.79;100.00
51369;BME280;37459;51.416;5.502;2022-12-07T10:14:57;101103.78;;;3.78;100.00
51369;BME280;37459;51.416;5.502;2022-12-07T10:17:33;101080.41;;;3.72;100.00
51369;BME280;37459;51.416;5.502;2022-12-07T10:20:19;101095.59;;;4.22;100.00
51369;BME280;37459;51.416;5.502;2022-12-07T10:23:00;101095.66;;;4.39;100.00
51369;BME280;37459;51.416;5.502;2022-12-07T10:25:29;101094.38;;;4.84;100.00
51369;BME280;37459;51.416;5.502;2022-12-07T10:28:00;101095.22;;;4.84;96.51
51369;BME280;37459;51.416;5.502;2022-12-07T10:30:28;101089.50;;;4.79;95.26
51369;BME280;37459;51.416;5.502;2022-12-07T10:32:57;101088.88;;;4.77;93.78
51369;BME280;37459;51.416;5.502;2022-12-07T10:35:25;101075.19;;;4.80;94.48
51369;BME280;37459;51.416;5.502;2022-12-07T10:37:54;101059.31;;;4.79;96.49
51369;BME280;37459;51.416;5.502;2022-12-07T10:40:30;101061.31;;;4.93;96.01
51369;BME280;37459;51.416;5.502;2022-12-07T10:43:03;101072.31;;;5.14;97.81
51369;BME280;37459;51.416;5.502;2022-12-07T10:45:31;101064.63;;;5.11;96.21
51369;BME280;37459;51.416;5.502;2022-12-07T10:48:05;101064.97;;;5.08;95.27
51369;BME280;37459;51.416;5.502;2022-12-07T10:51:02;101067.66;;;5.00;95.04
51369;BME280;37459;51.416;5.502;2022-12-07T10:53:40;101065.84;;;4.92;94.51
51369;BME280;37459;51.416;5.502;2022-12-07T10:56:33;101064.66;;;4.87;94.61
51369;BME280;37459;51.416;5.502;2022-12-07T10:59:17;101057.97;;;4.74;96.08
51369;BME280;37459;51.416;5.502;2022-12-07T11:01:51;101043.28;;;4.70;94.31
51369;BME280;37459;51.416;5.502;2022-12-07T11:04:28;101036.25;;;4.53;95.14
51369;BME280;37459;51.416;5.502;2022-12-07T11:07:01;101053.97;;;4.54;96.31
51369;BME280;37459;51.416;5.502;2022-12-07T11:09:49;101045.25;;;4.44;96.65
51369;BME280;37459;51.416;5.502;2022-12-07T11:12:28;101044.09;;;4.38;96.29
51369;BME280;37459;51.416;5.502;2022-12-07T11:15:02;101039.22;;;4.33;97.28
51369;BME280;37459;51.416;5.502;2022-12-07T11:17:36;101039.22;;;4.33;97.02
51369;BME280;37459;51.416;5.502;2022-12-07T11:20:23;101034.25;;;4.39;98.16
51369;BME280;37459;51.416;5.502;2022-12-07T11:23:01;101027.59;;;4.43;98.23
51369;BME280;37459;51.416;5.502;2022-12-07T11:25:32;101021.25;;;4.52;97.57
51369;BME280;37459;51.416;5.502;2022-12-07T11:28:15;101024.59;;;4.54;97.29
51369;BME280;37459;51.416;5.502;2022-12-07T11:30:52;101018.25;;;4.63;97.80
51369;BME280;37459;51.416;5.502;2022-12-07T11:33:27;101018.06;;;4.57;96.69
51369;BME280;37459;51.416;5.502;2022-12-07T11:36:02;101018.91;;;4.57;97.41
51369;BME280;37459;51.416;5.502;2022-12-07T11:38:37;101011.91;;;4.64;96.44
51369;BME280;37459;51.416;5.502;2022-12-07T11:41:05;101015.06;;;4.60;96.30
51369;BME280;37459;51.416;5.502;2022-12-07T11:43:49;101006.88;;;4.53;96.70
51369;BME280;37459;51.416;5.502;2022-12-07T11:46:17;101010.22;;;4.55;97.40
51369;BME280;37459;51.416;5.502;2022-12-07T11:48:47;101005.56;;;4.49;97.80
51369;BME280;37459;51.416;5.502;2022-12-07T11:51:20;101002.72;;;4.50;98.63
51369;BME280;37459;51.416;5.502;2022-12-07T11:53:50;100986.53;;;4.44;99.66
51369;BME280;37459;51.416;5.502;2022-12-07T11:56:21;100964.84;;;4.39;99.48
51369;BME280;37459;51.416;5.502;2022-12-07T11:58:51;100997.41;;;4.67;99.09
51369;BME280;37459;51.416;5.502;2022-12-07T12:01:31;100996.72;;;4.73;98.09
51369;BME280;37459;51.416;5.502;2022-12-07T12:04:07;100994.38;;;4.78;98.90
51369;BME280;37459;51.416;5.502;2022-12-07T12:06:42;100988.88;;;4.71;97.99
51369;BME280;37459;51.416;5.502;2022-12-07T12:09:13;100991.53;;;4.71;98.90
51369;BME280;37459;51.416;5.502;2022-12-07T12:11:54;100991.19;;;4.74;97.61
51369;BME280;37459;51.416;5.502;2022-12-07T12:14:38;100993.38;;;4.71;98.49
51369;BME280;37459;51.416;5.502;2022-12-07T12:17:42;100999.06;;;4.76;98.49
51369;BME280;37459;51.416;5.502;2022-12-07T12:20:21;101006.72;;;4.79;97.04
51369;BME280;37459;51.416;5.502;2022-12-07T12:22:54;100992.22;;;4.73;97.35
51369;BME280;37459;51.416;5.502;2022-12-07T12:25:27;100990.38;;;4.66;98.06
51369;BME280;37459;51.416;5.502;2022-12-07T12:27:56;100965.66;;;4.72;100.00
51369;BME280;37459;51.416;5.502;2022-12-07T12:30:30;100976.50;;;4.87;98.68
51369;BME280;37459;51.416;5.502;2022-12-07T12:33:03;100967.47;;;4.88;98.20
51369;BME280;37459;51.416;5.502;2022-12-07T12:35:32;100971.97;;;4.87;97.86
51369;BME280;37459;51.416;5.502;2022-12-07T12:38:29;100965.81;;;4.87;97.86
51369;BME280;37459;51.416;5.502;2022-12-07T12:40:57;100963.81;;;4.89;98.67
51369;BME280;37459;51.416;5.502;2022-12-07T12:43:43;100958.47;;;4.89;98.02
51369;BME280;37459;51.416;5.502;2022-12-07T12:46:37;100958.13;;;4.92;99.35
51369;BME280;37459;51.416;5.502;2022-12-07T12:55:18;100940.59;;;4.98;95.42
51369;BME280;37459;51.416;5.502;2022-12-07T12:57:47;100936.41;;;4.95;95.53
51369;BME280;37459;51.416;5.502;2022-12-07T13:00:34;100943.25;;;4.98;96.45
51369;BME280;37459;51.416;5.502;2022-12-07T13:03:00;100944.41;;;5.03;92.48
51369;BME280;37459;51.416;5.502;2022-12-07T13:05:28;100930.56;;;4.91;93.95
51369;BME280;37459;51.416;5.502;2022-12-07T13:08:00;100932.75;;;4.88;94.43
51369;BME280;37459;51.416;5.502;2022-12-07T13:10:38;100939.75;;;4.89;94.81
51369;BME280;37459;51.416;5.502;2022-12-07T13:13:33;100931.91;;;4.96;97.93
51369;BME280;37459;51.416;5.502;2022-12-07T13:19:00;100915.72;;;4.89;94.94
51369;BME280;37459;51.416;5.502;2022-12-07T13:21:41;100919.06;;;4.91;94.84